Time;durP1;ratioP1;P1;durP2;ratioP2;P2;SDS_P1;SDS_P2;PMS_P1;PMS_P2;Temp;Humidity;BMP_temperature;BMP_pressure;BME280_temperature;BME280_humidity;BME280_pressure;Samples;Min_cycle;Max_cycle;Signal;HPM_P1;HPM_P2
2023/05/23 00:02:22;;;;;;;27.85;25.23;;;15.70;99.90;;;;;;5267909;28;20032;-67
2023/05/23 00:04:57;;;;;;;32.17;28.95;;;15.70;99.90;;;;;;5268153;28;20027;-69
2023/05/23 00:07:28;;;;;;;31.05;28.05;;;15.80;99.90;;;;;;5268298;28;20020;-68
2023/05/23 00:09:58;;;;;;;31.30;28.40;;;15.70;99.90;;;;;;5268220;28;20034;-69
2023/05/23 00:12:29;;;;;;;29.98;27.20;;;15.80;99.90;;;;;;5268120;28;20023;-66
2023/05/23 00:15:00;;;;;;;31.15;28.33;;;15.80;99.90;;;;;;5268002;28;20032;-69
2023/05/23 00:17:31;;;;;;;31.58;28.73;;;15.80;99.90;;;;;;5267906;28;20056;-69
2023/05/23 00:20:03;;;;;;;28.65;26.10;;;15.90;99.90;;;;;;5268021;28;20036;-69
2023/05/23 00:22:35;;;;;;;29.63;27.20;;;15.80;99.90;;;;;;5272204;28;20064;-69
2023/05/23 00:25:07;;;;;;;29.95;27.50;;;15.80;99.90;;;;;;5272334;28;20411;-69
2023/05/23 00:27:38;;;;;;;27.80;25.60;;;15.80;99.90;;;;;;5272321;28;20475;-69
2023/05/23 00:30:09;;;;;;;27.65;25.17;;;15.80;99.90;;;;;;5272225;28;20027;-66
2023/05/23 00:32:40;;;;;;;27.42;24.90;;;15.90;99.90;;;;;;5271991;28;20440;-69
2023/05/23 00:35:10;;;;;;;25.67;23.50;;;15.90;99.90;;;;;;5272055;28;20051;-68
2023/05/23 00:37:42;;;;;;;27.05;24.67;;;15.80;99.90;;;;;;5272020;28;20028;-67
2023/05/23 00:40:13;;;;;;;27.65;24.92;;;15.70;99.90;;;;;;5271782;28;20115;-68
2023/05/23 00:42:44;;;;;;;30.33;27.48;;;15.80;99.90;;;;;;5271812;28;20111;-67
2023/05/23 00:45:15;;;;;;;27.80;25.05;;;15.80;99.90;;;;;;5271789;28;20034;-69
2023/05/23 00:47:47;;;;;;;27.60;24.85;;;15.80;99.90;;;;;;5271882;28;20020;-69
2023/05/23 00:50:18;;;;;;;27.02;24.48;;;15.80;99.90;;;;;;5271451;28;20098;-68
2023/05/23 00:52:49;;;;;;;27.80;25.42;;;15.90;99.90;;;;;;5271716;28;20020;-66
2023/05/23 00:55:20;;;;;;;26.08;23.45;;;15.80;99.90;;;;;;5271621;28;20503;-69
2023/05/23 00:57:55;;;;;;;28.80;25.88;;;15.90;99.90;;;;;;5271453;28;20009;-69
2023/05/23 01:00:27;;;;;;;28.35;25.67;;;16.00;99.90;;;;;;5271525;28;20054;-69
2023/05/23 01:02:58;;;;;;;26.30;23.88;;;15.90;99.90;;;;;;5271267;28;20028;-69
2023/05/23 01:05:29;;;;;;;29.63;26.85;;;15.90;99.90;;;;;;5271271;28;20380;-66
2023/05/23 01:08:02;;;;;;;30.33;26.88;;;15.90;99.90;;;;;;5271316;28;20443;-69
2023/05/23 01:10:32;;;;;;;30.75;27.85;;;16.00;99.90;;;;;;5271560;28;20024;-68
2023/05/23 01:13:23;;;;;;;28.92;26.13;;;16.00;99.90;;;;;;5271359;28;20103;-69
2023/05/23 01:16:23;;;;;;;30.65;27.98;;;15.90;99.90;;;;;;5271313;28;20421;-69
2023/05/23 01:19:21;;;;;;;34.80;31.00;;;15.80;99.90;;;;;;5271227;28;20020;-68
2023/05/23 01:21:54;;;;;;;32.70;29.48;;;15.80;99.90;;;;;;5255900;28;20499;-68
2023/05/23 01:24:36;;;;;;;34.05;30.00;;;15.80;99.90;;;;;;5271304;28;20502;-68
2023/05/23 01:27:16;;;;;;;33.15;29.63;;;15.80;99.90;;;;;;5271359;28;20043;-66
2023/05/23 01:29:53;;;;;;;35.97;31.70;;;15.80;99.90;;;;;;5271300;28;20024;-69
2023/05/23 01:32:26;;;;;;;36.20;30.08;;;15.80;99.90;;;;;;5270926;28;20024;-69
2023/05/23 01:34:58;;;;;;;33.28;28.38;;;15.90;99.90;;;;;;5270920;28;20507;-69
2023/05/23 01:37:29;;;;;;;31.77;28.08;;;15.80;99.90;;;;;;5270900;28;20468;-69
2023/05/23 01:40:00;;;;;;;33.25;28.58;;;15.80;99.90;;;;;;5270694;28;20085;-68
2023/05/23 01:42:31;;;;;;;32.85;29.48;;;15.80;99.90;;;;;;5270818;28;20035;-68
2023/05/23 01:45:01;;;;;;;31.25;27.95;;;15.90;99.90;;;;;;5270693;28;20601;-66
2023/05/23 01:47:34;;;;;;;31.23;28.15;;;15.80;99.90;;;;;;5270633;28;20589;-68
2023/05/23 01:50:06;;;;;;;31.25;28.27;;;15.80;99.90;;;;;;5270244;28;20078;-69
2023/05/23 01:52:38;;;;;;;31.20;27.73;;;15.80;99.90;;;;;;5270591;28;20032;-69
2023/05/23 01:55:10;;;;;;;28.27;25.67;;;15.70;99.90;;;;;;5270485;28;20024;-69
2023/05/23 01:57:43;;;;;;;32.80;29.48;;;15.80;99.90;;;;;;5270473;28;20024;-69
2023/05/23 02:00:14;;;;;;;35.47;28.92;;;15.70;99.90;;;;;;5270263;28;20077;-67
2023/05/23 02:02:46;;;;;;;33.30;30.40;;;15.70;99.90;;;;;;5270213;28;20115;-69
2023/05/23 02:05:17;;;;;;;32.00;28.75;;;15.80;99.90;;;;;;5270181;28;20107;-69
2023/05/23 02:07:47;;;;;;;32.72;29.35;;;15.90;99.90;;;;;;5270245;28;20689;-68
2023/05/23 02:10:19;;;;;;;30.73;27.70;;;15.90;99.90;;;;;;5270298;28;20024;-68
2023/05/23 02:12:50;;;;;;;31.17;28.23;;;15.70;99.90;;;;;;5270031;28;20032;-68
2023/05/23 02:15:20;;;;;;;31.52;28.60;;;15.80;99.90;;;;;;5269934;28;20031;-69
2023/05/23 02:17:51;;;;;;;31.77;28.60;;;15.90;99.90;;;;;;5269901;28;20024;-69
2023/05/23 02:20:22;;;;;;;30.88;27.67;;;15.80;99.90;;;;;;5269845;28;20035;-67
2023/05/23 02:22:53;;;;;;;31.55;28.33;;;15.80;99.90;;;;;;5269825;28;20025;-67
2023/05/23 02:25:23;;;;;;;30.33;27.65;;;15.90;99.90;;;;;;5269792;28;20376;-69
2023/05/23 02:27:54;;;;;;;30.27;27.15;;;16.00;99.90;;;;;;5269752;28;20031;-69
2023/05/23 02:30:25;;;;;;;32.50;29.25;;;15.80;99.90;;;;;;5269779;28;20396;-68
2023/05/23 02:32:56;;;;;;;28.58;26.05;;;15.80;99.90;;;;;;5269799;28;20069;-69
2023/05/23 02:35:27;;;;;;;29.13;26.27;;;15.90;99.90;;;;;;5269655;28;20040;-66
2023/05/23 02:37:59;;;;;;;29.38;26.45;;;15.90;99.90;;;;;;5269980;28;20027;-69
2023/05/23 02:40:29;;;;;;;31.33;28.35;;;15.90;99.90;;;;;;5269766;28;20024;-69
2023/05/23 02:43:00;;;;;;;31.45;28.80;;;15.80;99.90;;;;;;5269140;28;20491;-68
2023/05/23 02:45:31;;;;;;;32.90;29.80;;;15.90;99.90;;;;;;5269386;28;20085;-68
2023/05/23 02:48:02;;;;;;;31.85;29.13;;;15.80;99.90;;;;;;5269328;28;20103;-69
2023/05/23 02:50:33;;;;;;;29.23;26.85;;;15.80;99.90;;;;;;5269362;28;20127;-68
2023/05/23 02:53:03;;;;;;;29.05;26.35;;;15.70;99.90;;;;;;5269336;28;20479;-69
2023/05/23 02:55:35;;;;;;;29.02;26.77;;;15.70;99.90;;;;;;5269288;28;20519;-69
2023/05/23 02:58:06;;;;;;;32.15;29.50;;;15.80;99.90;;;;;;5269216;28;20012;-66
2023/05/23 03:00:37;;;;;;;31.33;28.70;;;15.90;99.90;;;;;;5269124;28;20551;-69
2023/05/23 03:03:08;;;;;;;30.63;28.17;;;15.70;99.90;;;;;;5268982;28;20430;-67
2023/05/23 03:05:38;;;;;;;29.48;26.67;;;15.80;99.90;;;;;;5269076;28;20031;-68
2023/05/23 03:08:09;;;;;;;29.90;27.27;;;15.90;99.90;;;;;;5269114;28;20558;-69
2023/05/23 03:10:40;;;;;;;30.33;28.05;;;15.90;99.90;;;;;;5268971;28;20112;-69
2023/05/23 03:13:11;;;;;;;32.00;29.17;;;16.00;99.90;;;;;;5268940;28;20023;-69
2023/05/23 03:15:42;;;;;;;30.13;27.45;;;15.80;99.90;;;;;;5268887;28;20031;-69
2023/05/23 03:18:12;;;;;;;30.45;27.90;;;15.80;99.90;;;;;;5268633;28;20071;-69
2023/05/23 03:20:43;;;;;;;30.55;27.95;;;15.80;99.90;;;;;;5268830;28;20375;-69
2023/05/23 03:23:14;;;;;;;31.52;28.65;;;15.80;99.90;;;;;;5268797;28;20813;-69
2023/05/23 03:25:45;;;;;;;30.38;27.27;;;15.70;99.90;;;;;;5268748;28;20363;-69
2023/05/23 03:28:16;;;;;;;32.88;29.48;;;15.60;99.90;;;;;;5268626;28;20035;-68
2023/05/23 03:30:46;;;;;;;30.10;27.38;;;15.60;99.90;;;;;;5268627;28;20016;-67
2023/05/23 03:33:17;;;;;;;29.52;27.02;;;15.70;99.90;;;;;;5268414;28;20476;-68
2023/05/23 03:35:48;;;;;;;27.10;24.90;;;15.80;99.90;;;;;;5267244;28;20110;-69
2023/05/23 03:38:19;;;;;;;27.45;25.08;;;15.80;99.90;;;;;;5268425;28;20035;-69
2023/05/23 03:40:50;;;;;;;29.92;27.10;;;15.80;99.90;;;;;;5268404;28;20027;-69
2023/05/23 03:43:20;;;;;;;28.20;25.92;;;15.80;99.90;;;;;;5268277;28;20032;-68
2023/05/23 03:45:51;;;;;;;30.33;27.60;;;15.70;99.90;;;;;;5268339;28;20089;-69
2023/05/23 03:48:22;;;;;;;30.90;27.83;;;15.80;99.90;;;;;;5268317;28;20034;-69
2023/05/23 03:50:53;;;;;;;28.30;25.80;;;15.80;99.90;;;;;;5268191;28;20126;-66
2023/05/23 03:53:24;;;;;;;28.40;26.05;;;15.80;99.90;;;;;;5268574;28;20056;-69
2023/05/23 03:55:55;;;;;;;26.77;24.50;;;15.90;99.90;;;;;;5267620;28;20028;-68
2023/05/23 03:58:25;;;;;;;29.00;26.60;;;15.90;99.90;;;;;;5268289;28;20024;-69
2023/05/23 04:00:56;;;;;;;28.58;26.17;;;15.70;99.90;;;;;;5268093;28;20453;-68
2023/05/23 04:03:31;;;;;;;28.30;25.80;;;15.80;99.90;;;;;;5268189;28;20036;-69
2023/05/23 04:06:02;;;;;;;27.48;25.10;;;15.80;99.90;;;;;;5268164;28;20032;-69
2023/05/23 04:08:33;;;;;;;29.15;26.92;;;15.80;99.90;;;;;;5268074;28;20024;-69
2023/05/23 04:11:03;;;;;;;28.30;25.95;;;15.80;99.90;;;;;;5268127;28;20050;-68
2023/05/23 04:13:34;;;;;;;26.23;23.98;;;15.80;99.90;;;;;;5268133;28;20028;-68
2023/05/23 04:16:05;;;;;;;28.95;26.23;;;15.80;99.90;;;;;;5268085;28;20034;-68
2023/05/23 04:18:37;;;;;;;30.75;28.17;;;15.80;99.90;;;;;;5267856;28;20673;-69
2023/05/23 04:21:08;;;;;;;29.23;26.83;;;15.70;99.90;;;;;;5267996;28;20032;-69
2023/05/23 04:23:39;;;;;;;29.35;26.90;;;15.80;99.90;;;;;;5268040;28;20036;-67
2023/05/23 04:26:10;;;;;;;29.90;27.17;;;15.80;99.90;;;;;;5267738;28;20032;-68
2023/05/23 04:28:45;;;;;;;29.40;26.58;;;15.80;99.90;;;;;;5267838;28;20045;-69
2023/05/23 04:31:15;;;;;;;32.90;29.48;;;15.80;99.90;;;;;;5267894;28;20036;-69
2023/05/23 04:33:46;;;;;;;32.35;29.52;;;15.60;99.90;;;;;;5267713;28;20073;-69
2023/05/23 04:36:17;;;;;;;32.63;29.80;;;15.80;99.90;;;;;;5267698;28;20490;-68
2023/05/23 04:38:48;;;;;;;32.70;29.17;;;15.70;99.90;;;;;;5267651;28;20050;-69
2023/05/23 04:41:22;;;;;;;31.40;28.58;;;15.90;99.90;;;;;;5267718;28;20446;-68
2023/05/23 04:43:53;;;;;;;31.92;28.85;;;15.90;99.90;;;;;;5267722;28;20047;-67
2023/05/23 04:46:25;;;;;;;33.15;28.58;;;15.90;99.90;;;;;;5267647;28;20024;-68
2023/05/23 04:48:57;;;;;;;35.28;31.70;;;16.00;99.90;;;;;;5267407;28;20111;-68
2023/05/23 04:51:28;;;;;;;35.00;31.58;;;16.00;99.90;;;;;;5267617;28;20724;-69
2023/05/23 04:53:59;;;;;;;32.92;29.80;;;16.00;99.90;;;;;;5267597;28;20036;-68
2023/05/23 04:56:30;;;;;;;31.25;28.38;;;16.00;99.90;;;;;;5267618;28;20081;-68
2023/05/23 04:59:01;;;;;;;33.10;29.73;;;15.90;99.90;;;;;;5267539;28;20438;-68
2023/05/23 05:01:31;;;;;;;28.80;26.10;;;16.00;99.90;;;;;;5267582;28;20535;-68
2023/05/23 05:04:02;;;;;;;29.00;26.50;;;16.10;99.90;;;;;;5267446;28;20081;-67
2023/05/23 05:06:33;;;;;;;27.90;25.52;;;16.00;99.90;;;;;;5268620;28;20038;-68
2023/05/23 05:09:04;;;;;;;26.02;23.92;;;15.90;99.90;;;;;;5271772;28;20028;-68
2023/05/23 05:11:34;;;;;;;27.25;24.85;;;15.90;99.90;;;;;;5271617;28;20480;-69
2023/05/23 05:14:05;;;;;;;26.50;24.35;;;16.00;99.90;;;;;;5271376;28;20107;-68
2023/05/23 05:16:36;;;;;;;30.48;27.67;;;16.00;99.90;;;;;;5271436;28;20023;-69
2023/05/23 05:19:07;;;;;;;28.13;25.83;;;16.00;99.90;;;;;;5271190;28;20039;-68
2023/05/23 05:21:38;;;;;;;27.63;25.10;;;16.10;99.90;;;;;;5271053;28;20464;-68
2023/05/23 05:24:09;;;;;;;28.60;25.77;;;16.20;99.90;;;;;;5271250;28;20028;-69
2023/05/23 05:26:41;;;;;;;31.25;28.13;;;16.10;99.90;;;;;;5271139;28;20107;-69
2023/05/23 05:29:12;;;;;;;30.30;27.58;;;16.10;99.90;;;;;;5271153;28;20035;-69
2023/05/23 05:31:44;;;;;;;29.50;27.17;;;16.10;99.90;;;;;;5271254;28;20330;-67
2023/05/23 05:34:14;;;;;;;27.77;25.33;;;16.10;99.90;;;;;;5271050;28;20096;-69
2023/05/23 05:36:46;;;;;;;28.83;26.40;;;16.20;99.90;;;;;;5270853;28;20028;-68
2023/05/23 05:39:17;;;;;;;31.02;28.45;;;16.10;99.90;;;;;;5270846;28;20032;-66
2023/05/23 05:41:48;;;;;;;30.15;27.55;;;16.10;99.90;;;;;;5270735;28;20039;-68
2023/05/23 05:44:19;;;;;;;31.58;28.65;;;16.00;99.90;;;;;;5270718;28;20111;-69
2023/05/23 05:46:50;;;;;;;28.10;25.80;;;15.90;99.90;;;;;;5270703;28;20024;-68
2023/05/23 05:49:21;;;;;;;29.27;26.85;;;16.10;99.90;;;;;;5270273;28;20048;-68
2023/05/23 05:51:52;;;;;;;27.13;25.00;;;16.10;99.90;;;;;;5270514;28;20465;-68
2023/05/23 05:54:23;;;;;;;27.00;24.92;;;16.00;99.90;;;;;;5270450;28;20409;-66
2023/05/23 05:56:54;;;;;;;27.95;25.85;;;16.20;99.90;;;;;;5270402;28;20496;-66
2023/05/23 05:59:25;;;;;;;28.65;26.42;;;16.20;99.90;;;;;;5270358;28;20543;-69
2023/05/23 06:01:56;;;;;;;27.45;25.05;;;16.30;99.90;;;;;;5270126;28;20040;-67
2023/05/23 06:04:27;;;;;;;28.30;25.70;;;16.40;99.90;;;;;;5270464;28;20024;-69
2023/05/23 06:06:58;;;;;;;27.88;25.58;;;16.40;99.90;;;;;;5270454;28;20028;-69
2023/05/23 06:09:29;;;;;;;27.17;24.85;;;16.50;99.90;;;;;;5270497;28;20020;-69
2023/05/23 06:12:00;;;;;;;27.80;25.50;;;16.40;99.90;;;;;;5270564;28;20020;-68
2023/05/23 06:14:30;;;;;;;28.17;25.77;;;16.40;99.90;;;;;;5270454;28;20024;-68
2023/05/23 06:17:02;;;;;;;28.77;26.15;;;16.40;99.90;;;;;;5270172;28;20464;-66
2023/05/23 06:19:33;;;;;;;30.65;27.70;;;16.40;99.90;;;;;;5269069;28;20561;-69
2023/05/23 06:22:04;;;;;;;27.88;25.48;;;16.40;99.90;;;;;;5270093;28;20765;-69
2023/05/23 06:24:35;;;;;;;29.52;26.88;;;16.50;99.90;;;;;;5270040;28;20039;-68
2023/05/23 06:27:06;;;;;;;29.35;26.35;;;16.60;99.90;;;;;;5269899;28;20034;-69
2023/05/23 06:29:37;;;;;;;30.92;27.77;;;16.60;99.90;;;;;;5269885;28;20020;-69
2023/05/23 06:32:08;;;;;;;28.95;25.85;;;16.60;99.90;;;;;;5269713;28;20043;-69
2023/05/23 06:34:39;;;;;;;28.83;26.00;;;16.60;99.90;;;;;;5269769;28;20028;-69
2023/05/23 06:37:09;;;;;;;31.48;28.33;;;16.70;99.90;;;;;;5269686;28;20163;-68
2023/05/23 06:39:40;;;;;;;30.95;27.92;;;17.00;99.90;;;;;;5269534;28;20024;-68
2023/05/23 06:42:11;;;;;;;31.48;28.83;;;17.00;99.90;;;;;;5269582;28;20115;-69
2023/05/23 06:44:42;;;;;;;30.80;27.77;;;16.90;99.90;;;;;;5269445;28;20376;-68
2023/05/23 06:47:12;;;;;;;30.50;27.73;;;17.10;99.90;;;;;;5269435;28;20035;-69
2023/05/23 06:49:44;;;;;;;29.13;26.20;;;17.20;99.90;;;;;;5269216;28;20511;-69
2023/05/23 06:52:15;;;;;;;28.13;25.23;;;17.10;99.90;;;;;;5269327;28;20038;-68
2023/05/23 06:54:46;;;;;;;27.27;24.65;;;17.00;99.90;;;;;;5269224;28;20020;-68
2023/05/23 06:57:16;;;;;;;32.20;27.13;;;17.00;99.90;;;;;;5269362;28;20106;-69
2023/05/23 06:59:47;;;;;;;28.77;26.10;;;17.10;99.90;;;;;;5269188;28;20035;-69
2023/05/23 07:02:18;;;;;;;32.47;28.98;;;17.00;99.90;;;;;;5268891;28;20043;-67
2023/05/23 07:04:49;;;;;;;28.98;25.95;;;16.90;99.90;;;;;;5269084;28;20086;-69
2023/05/23 07:07:19;;;;;;;32.17;29.08;;;16.90;99.90;;;;;;5269150;28;20024;-69
2023/05/23 07:09:50;;;;;;;31.50;28.55;;;16.90;99.90;;;;;;5269057;28;20048;-68
2023/05/23 07:12:21;;;;;;;33.05;29.85;;;16.80;99.90;;;;;;5268970;28;20095;-68
2023/05/23 07:14:52;;;;;;;34.58;31.40;;;16.80;99.90;;;;;;5268874;28;20024;-68
2023/05/23 07:17:23;;;;;;;36.28;32.47;;;16.80;99.90;;;;;;5268942;28;20454;-69
2023/05/23 07:19:53;;;;;;;34.80;31.23;;;16.70;99.90;;;;;;5268400;28;20156;-66
2023/05/23 07:22:24;;;;;;;33.38;30.02;;;16.70;99.90;;;;;;5268635;28;20123;-67
2023/05/23 07:24:55;;;;;;;31.42;28.23;;;16.70;99.90;;;;;;5269134;28;20028;-67
2023/05/23 07:27:26;;;;;;;34.10;29.88;;;16.70;99.90;;;;;;5267758;28;20107;-68
2023/05/23 07:29:57;;;;;;;29.58;26.60;;;16.70;99.90;;;;;;5268722;28;20048;-67
2023/05/23 07:32:27;;;;;;;31.45;28.40;;;16.80;99.90;;;;;;5268539;28;20487;-67
2023/05/23 07:34:58;;;;;;;30.50;27.48;;;16.80;99.90;;;;;;5268457;28;20146;-68
2023/05/23 07:37:29;;;;;;;31.48;28.35;;;16.80;99.90;;;;;;5268427;28;20043;-69
2023/05/23 07:40:00;;;;;;;32.85;29.60;;;17.00;99.90;;;;;;5268488;28;20028;-69
2023/05/23 07:42:31;;;;;;;33.85;30.73;;;17.10;99.90;;;;;;5268401;28;20040;-68
2023/05/23 07:45:02;;;;;;;31.92;28.95;;;17.20;99.90;;;;;;5268548;28;20038;-69
2023/05/23 07:47:33;;;;;;;31.42;28.58;;;17.30;99.90;;;;;;5268490;28;20020;-69
2023/05/23 07:50:05;;;;;;;30.70;27.90;;;17.40;99.90;;;;;;5268194;28;20373;-68
2023/05/23 07:52:35;;;;;;;27.80;25.40;;;17.40;99.90;;;;;;5268370;28;20028;-69
2023/05/23 07:55:07;;;;;;;28.33;25.42;;;17.40;99.90;;;;;;5268369;28;20372;-67
2023/05/23 07:57:37;;;;;;;26.90;24.27;;;17.40;99.90;;;;;;5268330;28;20516;-68
2023/05/23 08:00:09;;;;;;;27.80;25.02;;;17.40;99.90;;;;;;5268163;28;20146;-68
2023/05/23 08:02:39;;;;;;;28.45;25.38;;;17.40;99.90;;;;;;5268145;28;20492;-68
2023/05/23 08:05:10;;;;;;;28.77;22.75;;;17.30;99.90;;;;;;5268093;28;20043;-69
2023/05/23 08:07:41;;;;;;;28.50;25.55;;;17.30;99.90;;;;;;5268138;28;20066;-68
2023/05/23 08:10:12;;;;;;;31.77;28.67;;;17.30;99.90;;;;;;5268059;28;20028;-68
2023/05/23 08:12:42;;;;;;;34.03;30.92;;;17.10;99.90;;;;;;5266848;28;20040;-68
2023/05/23 08:15:13;;;;;;;34.80;30.35;;;17.00;99.90;;;;;;5267915;28;20722;-68
2023/05/23 08:17:44;;;;;;;33.25;29.90;;;17.00;99.90;;;;;;5267992;28;20472;-68
2023/05/23 08:20:15;;;;;;;33.58;29.90;;;17.00;99.90;;;;;;5267744;28;20036;-68
2023/05/23 08:22:46;;;;;;;33.20;30.27;;;17.00;99.90;;;;;;5267855;28;20036;-68
2023/05/23 08:25:17;;;;;;;33.92;30.67;;;17.00;99.90;;;;;;5267780;28;20028;-67
2023/05/23 08:27:47;;;;;;;36.03;32.53;;;17.10;99.90;;;;;;5267860;28;20028;-69
2023/05/23 08:30:18;;;;;;;37.75;33.83;;;17.30;99.90;;;;;;5267895;28;20465;-67
2023/05/23 08:32:49;;;;;;;36.35;32.70;;;17.30;99.90;;;;;;5267632;28;20058;-69
2023/05/23 08:35:21;;;;;;;31.42;28.20;;;17.50;99.90;;;;;;5267851;28;20027;-69
2023/05/23 08:37:52;;;;;;;31.90;28.85;;;17.80;99.90;;;;;;5267801;28;20025;-68
2023/05/23 08:40:26;;;;;;;29.17;26.42;;;17.80;99.90;;;;;;5268024;28;20027;-69
2023/05/23 08:42:57;;;;;;;26.75;24.13;;;17.80;99.90;;;;;;5271512;28;20071;-67
2023/05/23 08:45:30;;;;;;;26.83;21.67;;;17.60;99.90;;;;;;5272105;28;20028;-69
2023/05/23 08:48:03;;;;;;;27.90;24.92;;;17.40;99.90;;;;;;5271929;28;20026;-67
2023/05/23 08:50:36;;;;;;;26.10;22.92;;;17.60;99.90;;;;;;5270485;28;20491;-68
2023/05/23 08:53:09;;;;;;;27.83;25.33;;;17.40;99.90;;;;;;5271896;28;20023;-68
2023/05/23 08:55:40;;;;;;;28.08;25.17;;;17.50;99.90;;;;;;5271788;28;20089;-68
2023/05/23 08:58:12;;;;;;;28.90;24.90;;;17.40;99.90;;;;;;5271731;28;20448;-68
2023/05/23 09:00:43;;;;;;;27.13;23.95;;;17.40;99.90;;;;;;5271840;28;20024;-68
2023/05/23 09:03:14;;;;;;;30.85;27.67;;;17.50;99.90;;;;;;5271421;28;20028;-67
2023/05/23 09:05:45;;;;;;;29.90;26.80;;;17.50;99.90;;;;;;5271663;28;20029;-68
2023/05/23 09:08:18;;;;;;;29.38;25.98;;;17.40;99.90;;;;;;5271572;28;20028;-69
2023/05/23 09:10:49;;;;;;;30.67;27.67;;;17.30;99.90;;;;;;5271435;28;20454;-68
2023/05/23 09:13:19;;;;;;;33.83;30.48;;;17.30;99.90;;;;;;5271435;28;20028;-69
2023/05/23 09:16:03;;;;;;;31.80;29.00;;;17.40;99.90;;;;;;5271422;28;20054;-68
2023/05/23 09:18:37;;;;;;;32.92;28.52;;;17.40;99.90;;;;;;5271173;28;20039;-68
2023/05/23 09:21:09;;;;;;;33.38;29.00;;;17.40;99.90;;;;;;5271156;28;20032;-68
2023/05/23 09:23:40;;;;;;;32.63;29.63;;;17.30;99.90;;;;;;5271163;28;20526;-68
2023/05/23 09:26:14;;;;;;;33.92;30.63;;;17.30;99.90;;;;;;5271050;28;20019;-69
2023/05/23 09:28:45;;;;;;;31.83;28.42;;;17.40;99.90;;;;;;5270993;28;20036;-68
2023/05/23 09:31:16;;;;;;;30.98;27.83;;;17.50;99.90;;;;;;5270904;28;20020;-67
2023/05/23 09:33:49;;;;;;;26.63;23.75;;;17.90;99.90;;;;;;5270970;28;20077;-69
2023/05/23 09:36:20;;;;;;;24.60;21.77;;;18.10;99.90;;;;;;5270911;28;20032;-68
2023/05/23 09:38:53;;;;;;;24.75;19.90;;;18.50;99.90;;;;;;5270719;28;20425;-68
2023/05/23 09:41:25;;;;;;;25.80;22.58;;;18.50;99.90;;;;;;5270854;28;20113;-68
2023/05/23 09:43:56;;;;;;;26.38;23.77;;;18.40;99.90;;;;;;5270655;28;20391;-68
2023/05/23 09:46:29;;;;;;;25.90;23.35;;;18.40;99.90;;;;;;5270815;28;20004;-66
2023/05/23 09:49:00;;;;;;;22.08;20.00;;;18.20;99.90;;;;;;5270345;28;20044;-68
2023/05/23 09:51:31;;;;;;;23.55;21.63;;;18.10;99.90;;;;;;5270865;28;20430;-68
2023/05/23 09:54:02;;;;;;;24.90;22.50;;;18.20;99.90;;;;;;5269359;28;20020;-67
2023/05/23 09:56:34;;;;;;;24.60;22.27;;;18.40;99.90;;;;;;5271072;28;20376;-69
2023/05/23 09:59:07;;;;;;;24.95;22.85;;;18.70;99.90;;;;;;5270537;28;20031;-69
2023/05/23 10:01:39;;;;;;;24.35;22.33;;;19.00;99.90;;;;;;5270386;28;20036;-67
2023/05/23 10:04:11;;;;;;;25.90;23.83;;;19.10;99.90;;;;;;5270433;28;20379;-69
2023/05/23 10:06:52;;;;;;;24.48;22.20;;;18.80;99.90;;;;;;5270574;28;20032;-67
2023/05/23 10:09:26;;;;;;;25.42;23.25;;;18.50;99.90;;;;;;5270377;28;20033;-69
2023/05/23 10:12:37;;;;;;;24.90;22.58;;;18.80;99.90;;;;;;5270289;28;20032;-67
2023/05/23 10:15:10;;;;;;;22.70;20.90;;;19.30;99.90;;;;;;5270251;28;20052;-69
2023/05/23 10:18:00;;;;;;;23.80;21.67;;;18.80;99.90;;;;;;5270249;28;20016;-69
2023/05/23 10:20:33;;;;;;;24.10;22.23;;;19.10;99.90;;;;;;5270267;28;20093;-69
2023/05/23 10:23:05;;;;;;;24.00;21.98;;;19.40;99.90;;;;;;5270038;28;20470;-69
2023/05/23 10:25:36;;;;;;;23.85;21.83;;;19.00;99.90;;;;;;5269922;28;20030;-69
2023/05/23 10:28:08;;;;;;;23.35;21.55;;;19.20;99.90;;;;;;5269900;28;20081;-69
2023/05/23 10:30:39;;;;;;;25.40;23.52;;;19.40;99.90;;;;;;5269868;28;20020;-69
2023/05/23 10:33:11;;;;;;;23.73;21.92;;;19.30;99.90;;;;;;5269732;28;20028;-68
2023/05/23 10:36:20;;;;;;;22.88;21.23;;;19.70;99.90;;;;;;5269669;28;20540;-69
2023/05/23 10:39:25;;;;;;;27.20;25.07;;;19.70;99.90;;;;;;5225743;28;20416;-68
2023/05/23 10:42:02;;;;;;;24.88;22.73;;;19.40;99.90;;;;;;5269436;28;20047;-69
2023/05/23 10:44:32;;;;;;;24.15;21.77;;;19.30;99.90;;;;;;5269651;28;20099;-68
2023/05/23 10:47:04;;;;;;;22.08;20.30;;;19.40;99.90;;;;;;5269553;28;20158;-68
2023/05/23 10:49:42;;;;;;;19.60;18.05;;;19.60;99.90;;;;;;5269300;28;20047;-69
2023/05/23 10:52:16;;;;;;;20.63;18.73;;;19.60;99.90;;;;;;5269393;28;20048;-68
2023/05/23 10:54:55;;;;;;;20.45;18.92;;;19.60;99.90;;;;;;5269352;28;20375;-69
2023/05/23 10:57:28;;;;;;;20.55;18.30;;;19.50;99.90;;;;;;5269362;28;20027;-69
2023/05/23 10:59:59;;;;;;;22.17;20.27;;;19.40;99.90;;;;;;5269142;28;20032;-69
2023/05/23 11:02:30;;;;;;;21.60;19.90;;;19.40;99.90;;;;;;5269066;28;20476;-69
2023/05/23 11:05:21;;;;;;;24.05;21.98;;;19.90;99.90;;;;;;5268751;28;20026;-68
2023/05/23 11:08:13;;;;;;;20.83;18.92;;;19.50;99.90;;;;;;5269171;28;20036;-68
2023/05/23 11:10:59;;;;;;;22.10;20.40;;;20.00;99.90;;;;;;5269113;28;20028;-68
2023/05/23 11:13:51;;;;;;;21.60;19.60;;;20.00;99.90;;;;;;5269421;28;20028;-69
2023/05/23 11:16:38;;;;;;;23.83;21.90;;;19.80;99.90;;;;;;5269020;28;20077;-69
2023/05/23 11:19:21;;;;;;;20.85;18.90;;;19.30;99.90;;;;;;5268938;28;20035;-68
2023/05/23 11:22:00;;;;;;;21.27;19.35;;;19.50;99.90;;;;;;5268871;28;20042;-68
2023/05/23 11:24:49;;;;;;;20.95;18.90;;;19.50;99.90;;;;;;5268848;28;20328;-69
2023/05/23 11:27:37;;;;;;;21.08;19.38;;;19.10;99.90;;;;;;5268758;28;20028;-69
2023/05/23 11:30:16;;;;;;;21.58;19.80;;;19.60;99.90;;;;;;5268748;28;20468;-67
2023/05/23 11:32:52;;;;;;;21.17;19.48;;;19.60;99.90;;;;;;5268642;28;20035;-69
2023/05/23 11:35:23;;;;;;;22.05;20.02;;;19.40;99.90;;;;;;5268644;28;20446;-66
2023/05/23 11:37:56;;;;;;;22.05;20.33;;;19.60;99.90;;;;;;5268661;28;20031;-67
2023/05/23 11:40:38;;;;;;;22.55;20.50;;;19.60;99.90;;;;;;5268416;28;20604;-69
2023/05/23 11:43:15;;;;;;;20.58;18.88;;;19.50;99.90;;;;;;5268586;28;20515;-69
2023/05/23 11:45:46;;;;;;;19.25;17.55;;;19.20;99.90;;;;;;5268810;28;20024;-69
2023/05/23 11:48:17;;;;;;;20.92;19.33;;;19.10;99.90;;;;;;5268480;28;20089;-69
2023/05/23 11:50:52;;;;;;;22.73;20.75;;;19.30;99.90;;;;;;5268283;28;20052;-69
2023/05/23 11:53:26;;;;;;;20.60;18.73;;;19.20;99.90;;;;;;5268263;28;20024;-68
2023/05/23 11:56:00;;;;;;;21.05;19.23;;;19.10;99.90;;;;;;5268153;28;20109;-69
2023/05/23 11:58:36;;;;;;;19.58;18.05;;;19.40;99.90;;;;;;5268017;28;20031;-68
2023/05/23 12:01:09;;;;;;;20.63;19.00;;;19.70;99.90;;;;;;5267997;28;20024;-68
2023/05/23 12:03:47;;;;;;;21.50;19.83;;;19.80;99.90;;;;;;5268065;28;20036;-69
2023/05/23 12:06:19;;;;;;;19.88;18.27;;;19.70;99.90;;;;;;5267981;28;20631;-69
2023/05/23 12:08:53;;;;;;;21.00;19.60;;;19.20;99.90;;;;;;5268017;28;20040;-69
2023/05/23 12:11:25;;;;;;;19.42;18.02;;;19.30;99.90;;;;;;5268051;28;20027;-69
2023/05/23 12:13:56;;;;;;;20.13;18.50;;;19.40;99.90;;;;;;5268071;28;20027;-68
2023/05/23 12:16:28;;;;;;;21.33;19.75;;;19.60;99.90;;;;;;5267048;28;20060;-67
2023/05/23 12:19:00;;;;;;;21.50;19.80;;;19.50;99.90;;;;;;5267859;28;20046;-69
2023/05/23 12:22:05;;;;;;;21.58;19.70;;;20.00;99.90;;;;;;5268008;28;20042;-69
2023/05/23 12:24:45;;;;;;;21.38;19.48;;;20.20;99.90;;;;;;5260158;28;20536;-69
2023/05/23 12:27:17;;;;;;;20.55;19.00;;;19.70;99.90;;;;;;5268210;28;20457;-69
2023/05/23 12:29:51;;;;;;;23.85;22.02;;;19.30;99.90;;;;;;5268215;28;20028;-69
2023/05/23 12:32:24;;;;;;;22.10;20.45;;;19.20;99.90;;;;;;5267860;28;20016;-69
2023/05/23 12:34:55;;;;;;;23.38;21.65;;;19.70;99.90;;;;;;5267921;28;20025;-69
2023/05/23 12:37:26;;;;;;;22.88;21.20;;;19.90;99.90;;;;;;5267958;28;20104;-69
2023/05/23 12:39:57;;;;;;;19.45;18.05;;;20.00;99.90;;;;;;5267924;28;20079;-68
2023/05/23 12:42:27;;;;;;;22.67;20.88;;;20.10;99.90;;;;;;5267913;28;20044;-67
2023/05/23 12:44:59;;;;;;;22.65;20.77;;;20.30;99.90;;;;;;5267745;28;20021;-68
2023/05/23 12:47:30;;;;;;;24.38;22.80;;;20.20;99.90;;;;;;5267726;28;20023;-69
2023/05/23 12:50:01;;;;;;;25.67;23.67;;;19.80;99.90;;;;;;5267466;28;20039;-69
2023/05/23 12:52:31;;;;;;;24.35;22.73;;;20.20;99.90;;;;;;5267751;28;20367;-69
2023/05/23 12:55:03;;;;;;;25.58;23.88;;;20.50;99.90;;;;;;5267659;28;20035;-68
2023/05/23 12:57:34;;;;;;;27.92;25.92;;;20.60;99.90;;;;;;5267641;28;20028;-69